createdAt,value
2019-03-26T00:03:34.934Z,5.83
2019-03-26T00:06:23.836Z,5.83
2019-03-26T00:09:12.740Z,6.08
2019-03-26T00:12:01.667Z,5.15
2019-03-26T00:14:50.589Z,5.42
2019-03-26T00:17:39.482Z,6.72
2019-03-26T00:26:34.513Z,6.03
2019-03-26T00:29:06.240Z,6.17
2019-03-26T00:31:47.860Z,5.33
2019-03-26T00:34:29.269Z,6.58
2019-03-26T00:37:11.129Z,6.15
2019-03-26T00:39:52.466Z,5.35
2019-03-26T00:42:33.847Z,6.30
2019-03-26T00:45:14.731Z,5.80
2019-03-26T00:47:55.984Z,5.70
2019-03-26T00:50:37.508Z,6.10
2019-03-26T00:53:17.396Z,4.83
2019-03-26T01:01:57.869Z,7.10
2019-03-26T01:08:07.893Z,4.72
2019-03-26T01:16:51.727Z,4.50
2019-03-26T01:22:50.016Z,5.20
2019-03-26T01:25:31.151Z,4.85
2019-03-26T01:28:12.755Z,4.30
2019-03-26T01:30:54.338Z,4.53
2019-03-26T01:33:35.750Z,4.70
2019-03-26T01:36:17.163Z,6.80
2019-03-26T01:38:58.742Z,5.37
2019-03-26T01:41:40.347Z,5.28
2019-03-26T01:44:21.921Z,5.85
2019-03-26T01:47:03.374Z,5.05
2019-03-26T01:49:44.980Z,5.97
2019-03-26T01:52:26.637Z,5.70
2019-03-26T01:55:07.754Z,5.37
2019-03-26T01:57:49.241Z,4.72
2019-03-26T02:00:31.050Z,6.25
2019-03-26T02:03:12.417Z,6.50
2019-03-26T02:05:53.957Z,4.70
2019-03-26T02:08:35.112Z,5.62
2019-03-26T02:11:16.462Z,5.60
2019-03-26T02:13:57.937Z,5.37
2019-03-26T02:16:39.439Z,6.03
2019-03-26T02:19:20.718Z,7.40
2019-03-26T02:22:01.427Z,8.05
2019-03-26T02:24:42.765Z,5.70
2019-03-26T02:27:24.172Z,5.92
2019-03-26T02:30:05.438Z,5.40
2019-03-26T02:32:46.168Z,5.62
2019-03-26T02:35:26.886Z,6.20
2019-03-26T02:38:08.182Z,5.55
2019-03-26T02:40:49.709Z,6.20
2019-03-26T02:43:31.079Z,7.08
2019-03-26T02:46:11.827Z,5.83
2019-03-26T02:48:53.405Z,6.45
2019-03-26T02:51:34.902Z,5.10
2019-03-26T02:54:16.321Z,6.10
2019-03-26T02:56:57.785Z,6.37
2019-03-26T02:59:38.583Z,5.53
2019-03-26T03:02:20.411Z,6.17
2019-03-26T03:05:01.499Z,6.17
2019-03-26T03:07:42.841Z,5.40
2019-03-26T03:10:23.803Z,4.60
2019-03-26T03:13:05.294Z,4.97
2019-03-26T03:15:46.654Z,6.42
2019-03-26T03:18:28.204Z,6.45
2019-03-26T03:21:09.816Z,7.00
2019-03-26T03:23:51.148Z,5.65
2019-03-26T03:26:32.296Z,5.53
2019-03-26T03:29:13.655Z,6.45
2019-03-26T03:31:55.168Z,4.83
2019-03-26T03:34:36.598Z,6.45
2019-03-26T03:37:18.181Z,6.17
2019-03-26T03:39:58.121Z,4.80
2019-03-26T03:42:47.020Z,5.83
2019-03-26T04:01:47.372Z,4.58
2019-03-26T04:10:29.667Z,5.17
2019-03-26T04:19:08.305Z,5.17
2019-03-26T04:25:04.321Z,4.40
2019-03-26T04:27:46.127Z,5.35
2019-03-26T04:30:27.302Z,5.30
2019-03-26T04:33:08.837Z,5.45
2019-03-26T04:35:50.520Z,4.65
2019-03-26T04:38:32.079Z,4.50
2019-03-26T04:41:13.488Z,4.75
2019-03-26T04:43:53.481Z,4.72
2019-03-26T04:52:45.939Z,4.50
2019-03-26T04:58:57.012Z,3.85
2019-03-26T05:01:45.174Z,4.42
2019-03-26T05:07:31.492Z,3.50
2019-03-26T05:13:38.881Z,3.52
2019-03-26T05:16:27.855Z,4.72
2019-03-26T05:25:00.550Z,4.37
2019-03-26T05:27:45.533Z,3.80
2019-03-26T05:30:24.295Z,4.72
2019-03-26T05:33:04.988Z,4.80
2019-03-26T05:35:46.373Z,5.50
2019-03-26T05:38:27.205Z,5.95
2019-03-26T05:41:10.499Z,4.10
2019-03-26T05:43:51.515Z,4.30
2019-03-26T05:46:33.147Z,4.20
2019-03-26T05:49:14.416Z,5.35
2019-03-26T05:51:55.904Z,4.33
2019-03-26T05:54:37.193Z,3.95
2019-03-26T05:57:18.687Z,4.42
2019-03-26T05:59:59.744Z,3.70
2019-03-26T06:02:41.475Z,5.08
2019-03-26T06:05:22.548Z,3.75
2019-03-26T06:08:03.236Z,3.85
2019-03-26T06:10:44.837Z,4.15
2019-03-26T06:13:26.379Z,3.90
2019-03-26T06:16:07.605Z,4.53
2019-03-26T06:18:49.235Z,5.17
2019-03-26T06:21:30.887Z,5.60
2019-03-26T06:24:11.699Z,5.28
2019-03-26T06:26:51.669Z,4.35
2019-03-26T06:32:36.672Z,4.72
2019-03-26T06:35:25.660Z,4.92
2019-03-26T06:38:14.505Z,4.20
2019-03-26T06:41:15.263Z,4.70
2019-03-26T06:47:03.698Z,4.03
2019-03-26T06:58:56.991Z,4.33
2019-03-26T07:05:00.501Z,5.15
2019-03-26T07:13:44.070Z,5.83
2019-03-26T07:16:32.981Z,3.37
2019-03-26T07:19:22.253Z,4.17
2019-03-26T07:25:02.879Z,4.75
2019-03-26T07:27:44.352Z,4.30
2019-03-26T07:30:25.776Z,3.40
2019-03-26T07:33:07.403Z,4.20
2019-03-26T07:35:48.642Z,3.95
2019-03-26T07:38:29.417Z,3.80
2019-03-26T07:41:10.759Z,3.77
2019-03-26T07:43:52.228Z,4.30
2019-03-26T07:46:32.893Z,3.30
2019-03-26T07:49:14.372Z,4.62
2019-03-26T07:51:55.719Z,4.40
2019-03-26T07:54:37.300Z,4.22
2019-03-26T07:57:18.781Z,4.62
2019-03-26T08:00:00.406Z,4.30
2019-03-26T08:02:41.754Z,3.75
2019-03-26T08:05:29.603Z,4.03
2019-03-26T08:08:06.540Z,4.37
2019-03-26T08:10:47.759Z,4.55
2019-03-26T08:13:28.905Z,4.50
2019-03-26T08:16:10.100Z,4.85
2019-03-26T08:18:50.928Z,5.15
2019-03-26T08:21:32.459Z,5.00
2019-03-26T08:24:14.247Z,4.03
2019-03-26T08:26:55.351Z,4.15
2019-03-26T08:29:37.026Z,4.45
2019-03-26T08:32:18.429Z,3.77
2019-03-26T08:35:00.008Z,4.20
2019-03-26T08:37:41.239Z,3.77
2019-03-26T08:40:23.539Z,3.95
2019-03-26T08:43:05.198Z,4.20
2019-03-26T08:45:46.688Z,3.90
2019-03-26T08:48:28.172Z,4.28
2019-03-26T08:51:09.694Z,3.12
2019-03-26T08:53:50.875Z,3.95
2019-03-26T08:56:32.279Z,3.52
2019-03-26T08:59:13.848Z,3.15
2019-03-26T09:01:55.350Z,3.80
2019-03-26T09:04:36.476Z,2.85
2019-03-26T09:07:17.548Z,3.00
2019-03-26T09:09:58.862Z,4.25
2019-03-26T09:12:40.468Z,4.00
2019-03-26T09:15:21.582Z,3.25
2019-03-26T09:18:02.752Z,2.87
2019-03-26T09:20:44.132Z,3.25
2019-03-26T09:23:25.671Z,3.17
2019-03-26T09:26:06.903Z,4.33
2019-03-26T09:28:48.596Z,4.33
2019-03-26T09:31:30.093Z,4.22
2019-03-26T09:34:11.552Z,4.00
2019-03-26T09:36:52.269Z,3.05
2019-03-26T09:39:32.192Z,4.50
2019-03-26T09:42:21.084Z,3.60
2019-03-26T09:48:25.086Z,3.87
2019-03-26T09:54:09.425Z,3.62
2019-03-26T09:56:58.716Z,2.37
2019-03-26T09:59:47.883Z,3.55
2019-03-26T10:05:35.982Z,3.20
2019-03-26T10:08:47.005Z,3.08
2019-03-26T10:11:15.428Z,3.50
2019-03-26T10:20:28.285Z,3.83
2019-03-26T10:23:17.188Z,2.95
2019-03-26T10:25:58.707Z,2.90
2019-03-26T10:28:40.353Z,4.33
2019-03-26T10:31:21.791Z,3.52
2019-03-26T10:34:03.394Z,4.45
2019-03-26T10:36:44.832Z,3.62
2019-03-26T10:39:26.282Z,3.10
2019-03-26T10:42:07.516Z,3.52
2019-03-26T10:44:48.918Z,3.62
2019-03-26T10:47:30.241Z,2.90
2019-03-26T10:50:11.788Z,3.70
2019-03-26T10:52:51.810Z,3.27
2019-03-26T10:55:40.701Z,3.27
2019-03-26T10:58:29.784Z,3.22
2019-03-26T11:01:18.748Z,4.05
2019-03-26T11:04:19.367Z,3.80
2019-03-26T11:07:10.025Z,4.15
2019-03-26T11:13:12.465Z,2.87
2019-03-26T11:15:49.040Z,3.52
2019-03-26T11:24:43.415Z,2.90
2019-03-26T11:27:20.159Z,3.27
2019-03-26T11:33:24.321Z,2.95
2019-03-26T11:36:13.270Z,4.20
2019-03-26T11:47:49.111Z,4.55
2019-03-26T11:50:37.981Z,3.50
2019-03-26T11:56:22.711Z,4.15
2019-03-26T12:08:21.674Z,3.70
2019-03-26T12:17:35.240Z,4.17
2019-03-26T12:20:16.552Z,3.30
2019-03-26T12:22:58.079Z,4.45
2019-03-26T12:25:39.232Z,4.90
2019-03-26T12:28:21.151Z,4.65
2019-03-26T12:31:02.413Z,3.60
2019-03-26T12:33:43.963Z,4.33
2019-03-26T12:36:38.910Z,5.50
2019-03-26T12:39:07.959Z,3.47
2019-03-26T12:41:49.125Z,4.35
2019-03-26T12:44:30.662Z,4.08
2019-03-26T12:47:11.476Z,4.40
2019-03-26T12:49:53.192Z,3.60
2019-03-26T12:52:34.364Z,5.33
2019-03-26T12:55:15.987Z,4.12
2019-03-26T12:57:57.136Z,4.35
2019-03-26T13:00:38.054Z,3.50
2019-03-26T13:03:19.547Z,4.72
2019-03-26T13:06:01.384Z,6.20
2019-03-26T13:08:42.725Z,4.08
2019-03-26T13:11:24.433Z,4.78
2019-03-26T13:14:04.479Z,4.05
2019-03-26T13:17:07.390Z,4.20
2019-03-26T13:19:44.124Z,4.40
2019-03-26T13:25:28.574Z,4.25
2019-03-26T13:28:17.550Z,4.78
2019-03-26T13:39:53.240Z,4.15
2019-03-26T13:42:56.546Z,4.53
2019-03-26T13:45:33.087Z,4.37
2019-03-26T13:54:18.818Z,4.17
2019-03-26T13:57:07.735Z,3.65
2019-03-26T13:59:56.608Z,3.85
2019-03-26T14:05:52.694Z,3.72
2019-03-26T14:08:31.653Z,3.60
2019-03-26T14:17:18.101Z,3.67
2019-03-26T14:19:59.710Z,2.65
2019-03-26T14:22:41.052Z,3.35
2019-03-26T14:25:22.169Z,4.03
2019-03-26T14:28:03.734Z,3.40
2019-03-26T14:30:44.571Z,3.20
2019-03-26T14:33:33.508Z,3.80
2019-03-26T14:39:31.880Z,4.08
2019-03-26T14:42:20.816Z,3.83
2019-03-26T14:45:09.871Z,4.20
2019-03-26T14:48:13.153Z,4.00
2019-03-26T14:51:03.721Z,4.28
2019-03-26T14:53:40.603Z,5.47
2019-03-26T14:56:30.046Z,5.55
2019-03-26T14:59:18.940Z,5.08
2019-03-26T15:05:29.167Z,4.42
2019-03-26T15:08:08.077Z,5.72
2019-03-26T15:10:49.317Z,5.35
2019-03-26T15:13:30.199Z,4.22
2019-03-26T15:16:11.459Z,4.22
2019-03-26T15:18:52.929Z,3.98
2019-03-26T15:21:34.059Z,5.15
2019-03-26T15:24:15.522Z,3.67
2019-03-26T15:26:56.683Z,5.45
2019-03-26T15:29:38.479Z,4.83
2019-03-26T15:32:19.715Z,3.15
2019-03-26T15:35:01.637Z,3.67
2019-03-26T15:37:42.576Z,3.37
2019-03-26T15:40:22.589Z,2.70
2019-03-26T15:43:11.436Z,4.03
2019-03-26T15:48:55.719Z,4.12
2019-03-26T15:54:43.768Z,3.22
2019-03-26T15:57:32.656Z,3.87
2019-03-26T16:03:36.716Z,5.60
2019-03-26T16:06:25.643Z,4.67
2019-03-26T16:09:26.340Z,4.30
2019-03-26T16:11:57.830Z,4.30
2019-03-26T16:14:39.453Z,4.03
2019-03-26T16:17:20.708Z,4.85
2019-03-26T16:20:02.295Z,4.62
2019-03-26T16:22:43.990Z,5.42
2019-03-26T16:25:25.473Z,4.58
2019-03-26T16:30:49.611Z,3.83
2019-03-26T16:33:38.539Z,5.08
2019-03-26T16:36:27.532Z,4.85
2019-03-26T16:39:16.414Z,4.08
2019-03-26T16:45:12.723Z,4.55
2019-03-26T16:47:51.749Z,4.30
2019-03-26T16:50:40.884Z,4.30
2019-03-26T16:53:30.135Z,3.47
2019-03-26T16:59:26.642Z,4.10
2019-03-26T17:11:09.193Z,4.50
2019-03-26T17:13:50.877Z,3.87
2019-03-26T17:16:32.048Z,4.20
2019-03-26T17:19:13.346Z,3.72
2019-03-26T17:21:54.972Z,4.45
2019-03-26T17:24:36.223Z,4.60
2019-03-26T17:27:16.903Z,4.78
2019-03-26T17:29:57.644Z,5.15
2019-03-26T17:32:38.586Z,4.28
2019-03-26T17:35:19.476Z,4.47
2019-03-26T17:38:01.002Z,4.67
2019-03-26T17:40:41.738Z,4.50
2019-03-26T17:43:22.931Z,4.47
2019-03-26T17:46:04.239Z,4.35
2019-03-26T17:48:45.066Z,4.12
2019-03-26T17:51:25.783Z,3.95
2019-03-26T17:54:05.913Z,3.85
2019-03-26T17:56:55.061Z,5.08
2019-03-26T17:59:44.250Z,5.17
2019-03-26T18:05:43.087Z,4.97
2019-03-26T18:14:42.154Z,5.10
2019-03-26T18:17:31.045Z,4.12
2019-03-26T18:20:31.917Z,4.42
2019-03-26T18:29:15.782Z,4.58
2019-03-26T18:31:52.664Z,5.45
2019-03-26T18:37:40.779Z,4.08
2019-03-26T18:40:41.701Z,4.25
2019-03-26T18:43:12.539Z,5.47
2019-03-26T18:45:54.168Z,5.58
2019-03-26T18:48:35.642Z,5.17
2019-03-26T18:51:15.598Z,4.45
2019-03-26T18:57:14.408Z,6.33
2019-03-26T19:00:03.502Z,5.65
2019-03-26T19:03:06.374Z,6.80
2019-03-26T19:05:54.968Z,5.40
2019-03-26T19:08:33.801Z,7.00
2019-03-26T19:17:21.627Z,6.08
2019-03-26T19:20:10.695Z,6.80
2019-03-26T19:23:13.902Z,5.62
2019-03-26T19:37:45.540Z,6.90
2019-03-26T19:40:22.283Z,6.45
2019-03-26T19:43:10.645Z,5.65
2019-03-26T19:45:46.716Z,5.90
2019-03-26T19:48:29.627Z,8.20
2019-03-26T19:51:10.699Z,7.10
2019-03-26T19:53:52.424Z,7.17
2019-03-26T19:56:33.163Z,7.03
2019-03-26T19:59:03.360Z,6.62
2019-03-26T20:05:01.796Z,6.47
2019-03-26T20:10:38.653Z,7.90
2019-03-26T20:19:56.027Z,6.85
2019-03-26T20:34:18.189Z,6.37
2019-03-26T20:37:07.110Z,7.40
2019-03-26T20:42:44.179Z,6.62
2019-03-26T20:45:24.985Z,7.22
2019-03-26T20:48:06.585Z,8.45
2019-03-26T20:50:47.932Z,8.25
2019-03-26T20:53:29.079Z,8.50
2019-03-26T20:56:10.819Z,11.40
2019-03-26T20:58:52.438Z,11.08
2019-03-26T21:01:34.058Z,9.25
2019-03-26T21:04:15.679Z,8.78
2019-03-26T21:06:56.859Z,7.80
2019-03-26T21:09:38.689Z,6.95
2019-03-26T21:12:19.544Z,7.25
2019-03-26T21:14:59.493Z,6.85
2019-03-26T21:17:48.363Z,7.10
2019-03-26T21:20:37.270Z,6.60
2019-03-26T21:29:31.335Z,7.28
2019-03-26T21:32:20.296Z,5.35
2019-03-26T21:38:38.343Z,6.15
2019-03-26T21:44:04.442Z,6.47
2019-03-26T21:46:45.696Z,7.33
2019-03-26T21:49:27.033Z,7.45
2019-03-26T21:52:08.726Z,6.72
2019-03-26T21:54:49.489Z,7.30
2019-03-26T21:57:31.043Z,7.00
2019-03-26T22:00:12.422Z,7.17
2019-03-26T22:02:53.878Z,7.30
2019-03-26T22:05:35.553Z,7.87
2019-03-26T22:08:18.911Z,8.10
2019-03-26T22:11:00.358Z,7.50
2019-03-26T22:13:41.202Z,8.25
2019-03-26T22:16:22.109Z,7.45
2019-03-26T22:19:02.097Z,7.70
2019-03-26T22:21:51.075Z,5.90
2019-03-26T22:33:40.871Z,7.80
2019-03-26T22:39:27.006Z,8.60
2019-03-26T22:42:08.225Z,8.08
2019-03-26T22:44:49.723Z,8.93
2019-03-26T22:47:31.004Z,9.70
2019-03-26T22:50:12.320Z,9.10
2019-03-26T22:52:53.308Z,9.25
2019-03-26T22:55:34.936Z,9.43
2019-03-26T22:58:16.387Z,9.85
2019-03-26T23:00:57.995Z,9.35
2019-03-26T23:03:39.172Z,10.28
2019-03-26T23:06:20.398Z,9.53
2019-03-26T23:09:02.045Z,8.83
2019-03-26T23:11:43.502Z,9.73
2019-03-26T23:14:24.261Z,9.50
2019-03-26T23:17:05.686Z,8.35
2019-03-26T23:19:45.615Z,8.53
2019-03-26T23:25:29.576Z,9.30
2019-03-26T23:28:42.372Z,8.15
2019-03-26T23:31:21.325Z,10.28
2019-03-26T23:34:10.260Z,8.28
2019-03-26T23:46:03.640Z,8.53
2019-03-26T23:48:52.680Z,8.70
